Time,TemperatureF,DewpointF,PressureIn,WindDirection,WindDirectionDegrees,WindSpeedMPH,WindSpeedGustMPH,Humidity,HourlyPrecipIn,Conditions,Clouds,dailyrainin,SoftwareType,DateUTC
2013-03-20 00:02:00,51.0,-99.9,30.07,ENE,78,5.0,7.0,-999,-99.99,,,-99.99,,2013-03-20 07:02:00,
2013-03-20 00:12:00,51.0,-99.9,30.07,East,83,4.0,6.0,-999,-99.99,,,-99.99,,2013-03-20 07:12:00,
2013-03-20 00:22:00,51.0,-99.9,30.06,ENE,72,4.0,5.0,-999,-99.99,,,-99.99,,2013-03-20 07:22:00,
2013-03-20 00:32:00,51.0,-99.9,30.07,ESE,110,4.0,6.0,-999,-99.99,,,-99.99,,2013-03-20 07:32:00,
2013-03-20 00:42:00,51.0,-99.9,30.07,ESE,117,3.0,5.0,-999,-99.99,,,-99.99,,2013-03-20 07:42:00,
2013-03-20 00:52:00,52.0,-99.9,30.08,ESE,118,3.0,4.0,-999,-99.99,,,-99.99,,2013-03-20 07:52:00,
2013-03-20 01:02:00,52.0,-99.9,30.07,ESE,123,5.0,6.0,-999,-99.99,,,-99.99,,2013-03-20 08:02:00,
2013-03-20 01:13:00,52.0,-99.9,30.08,SE,138,4.0,5.0,-999,-99.99,,,-99.99,,2013-03-20 08:13:00,
2013-03-20 01:22:00,52.0,-99.9,30.08,ESE,108,2.0,6.0,-999,-99.99,,,-99.99,,2013-03-20 08:22:00,
2013-03-20 01:32:00,52.0,-99.9,30.07,ESE,112,5.0,5.0,-999,-99.99,,,-99.99,,2013-03-20 08:32:00,
2013-03-20 01:43:00,52.0,-99.9,30.07,East,100,4.0,5.0,-999,-99.99,,,-99.99,,2013-03-20 08:43:00,
2013-03-20 01:52:00,52.0,-99.9,30.08,NNW,331,2.0,2.0,-999,-99.99,,,-99.99,,2013-03-20 08:52:00,
2013-03-20 02:02:00,52.0,-99.9,30.08,North,353,2.0,2.0,-999,-99.99,,,-99.99,,2013-03-20 09:02:00,
2013-03-20 02:12:00,52.0,-99.9,30.08,North,356,2.0,2.0,-999,-99.99,,,-99.99,,2013-03-20 09:12:00,
2013-03-20 02:22:00,52.0,-99.9,30.09,West,259,5.0,7.0,-999,-99.99,,,-99.99,,2013-03-20 09:22:00,
2013-03-20 02:33:00,51.0,-99.9,30.08,West,270,4.0,6.0,-999,-99.99,,,-99.99,,2013-03-20 09:33:00,
2013-03-20 02:43:00,51.0,-99.9,30.08,West,281,3.0,5.0,-999,-99.99,,,-99.99,,2013-03-20 09:43:00,
2013-03-20 02:53:00,51.0,-99.9,30.09,NW,304,6.0,7.0,-999,-99.99,,,-99.99,,2013-03-20 09:53:00,
2013-03-20 03:03:00,51.0,-99.9,30.08,NW,308,2.0,6.0,-999,-99.99,,,-99.99,,2013-03-20 10:03:00,
2013-03-20 03:13:00,51.0,-99.9,30.08,WNW,303,4.0,4.0,-999,-99.99,,,-99.99,,2013-03-20 10:13:00,
2013-03-20 03:23:00,51.0,-99.9,30.07,NW,308,4.0,5.0,-999,-99.99,,,-99.99,,2013-03-20 10:23:00,
2013-03-20 03:33:00,51.0,-99.9,30.07,NNW,336,5.0,6.0,-999,-99.99,,,-99.99,,2013-03-20 10:33:00,
2013-03-20 03:43:00,51.0,-99.9,30.07,NW,311,4.0,5.0,-999,-99.99,,,-99.99,,2013-03-20 10:43:00,
2013-03-20 03:53:00,51.0,-99.9,30.07,WNW,294,3.0,5.0,-999,-99.99,,,-99.99,,2013-03-20 10:53:00,
2013-03-20 04:03:00,51.0,-99.9,30.07,NW,312,4.0,5.0,-999,-99.99,,,-99.99,,2013-03-20 11:03:00,
2013-03-20 04:12:00,51.0,-99.9,30.08,NW,308,5.0,6.0,-999,-99.99,,,-99.99,,2013-03-20 11:12:00,
2013-03-20 04:22:00,51.0,-99.9,30.07,NW,324,4.0,6.0,-999,-99.99,,,-99.99,,2013-03-20 11:22:00,
2013-03-20 04:32:00,51.0,-99.9,30.07,WNW,303,3.0,5.0,-999,-99.99,,,-99.99,,2013-03-20 11:32:00,
2013-03-20 04:43:00,51.0,-99.9,30.07,NW,326,4.0,5.0,-999,-99.99,,,-99.99,,2013-03-20 11:43:00,
2013-03-20 04:52:00,51.0,-99.9,30.07,WNW,296,3.0,4.0,-999,-99.99,,,-99.99,,2013-03-20 11:52:00,
2013-03-20 05:02:00,51.0,-99.9,30.06,NW,310,4.0,5.0,-999,-99.99,,,-99.99,,2013-03-20 12:02:00,
2013-03-20 05:13:00,51.0,-99.9,30.06,WNW,295,3.0,4.0,-999,-99.99,,,-99.99,,2013-03-20 12:13:00,
2013-03-20 05:22:00,51.0,-99.9,30.06,NW,317,3.0,5.0,-999,-99.99,,,-99.99,,2013-03-20 12:22:00,
2013-03-20 05:33:00,51.0,-99.9,30.06,NNW,335,2.0,2.0,-999,-99.99,,,-99.99,,2013-03-20 12:33:00,
2013-03-20 05:43:00,51.0,-99.9,30.05,North,351,2.0,3.0,-999,-99.99,,,-99.99,,2013-03-20 12:43:00,
2013-03-20 05:53:00,52.0,-99.9,30.04,ENE,67,2.0,3.0,-999,-99.99,,,-99.99,,2013-03-20 12:53:00,
2013-03-20 06:03:00,52.0,-99.9,30.05,NNE,21,2.0,2.0,-999,-99.99,,,-99.99,,2013-03-20 13:03:00,
2013-03-20 06:12:00,52.0,-99.9,30.05,East,82,2.0,3.0,-999,-99.99,,,-99.99,,2013-03-20 13:12:00,
2013-03-20 06:22:00,52.0,-99.9,30.04,East,84,4.0,5.0,-999,-99.99,,,-99.99,,2013-03-20 13:22:00,
2013-03-20 06:32:00,52.0,-99.9,30.05,ESE,103,5.0,6.0,-999,-99.99,,,-99.99,,2013-03-20 13:32:00,
2013-03-20 06:43:00,52.0,-99.9,30.05,ESE,120,7.0,8.0,-999,-99.99,,,-99.99,,2013-03-20 13:43:00,
2013-03-20 06:53:00,52.0,-99.9,30.05,ESE,112,6.0,8.0,-999,-99.99,,,-99.99,,2013-03-20 13:53:00,
2013-03-20 07:03:00,53.0,-99.9,30.05,ESE,114,7.0,8.0,-999,-99.99,,,-99.99,,2013-03-20 14:03:00,
2013-03-20 07:12:00,53.0,-99.9,30.05,ESE,119,8.0,9.0,-999,-99.99,,,-99.99,,2013-03-20 14:12:00,
2013-03-20 07:23:00,53.0,-99.9,30.06,SE,130,5.0,7.0,-999,-99.99,,,-99.99,,2013-03-20 14:23:00,
2013-03-20 07:34:00,53.0,-99.9,30.05,ESE,111,6.0,6.0,-999,-99.99,,,-99.99,,2013-03-20 14:34:00,
2013-03-20 07:43:00,53.0,-99.9,30.05,ESE,109,6.0,7.0,-999,-99.99,,,-99.99,,2013-03-20 14:43:00,
2013-03-20 07:53:00,53.0,-99.9,30.05,ESE,122,9.0,10.0,-999,-99.99,,,-99.99,,2013-03-20 14:53:00,
2013-03-20 08:03:00,53.0,-99.9,30.05,SE,127,9.0,12.0,-999,-99.99,,,-99.99,,2013-03-20 15:03:00,
2013-03-20 08:13:00,53.0,-99.9,30.05,SE,129,8.0,10.0,-999,-99.99,,,-99.99,,2013-03-20 15:13:00,
2013-03-20 08:22:00,53.0,-99.9,30.05,ESE,122,8.0,10.0,-999,-99.99,,,-99.99,,2013-03-20 15:22:00,
2013-03-20 08:34:00,53.0,-99.9,30.05,ESE,123,10.0,11.0,-999,-99.99,,,-99.99,,2013-03-20 15:34:00,
2013-03-20 08:44:00,53.0,-99.9,30.06,SE,126,10.0,11.0,-999,-99.99,,,-99.99,,2013-03-20 15:44:00,
2013-03-20 08:53:00,53.0,-99.9,30.06,SE,129,9.0,12.0,-999,-99.99,,,-99.99,,2013-03-20 15:53:00,
2013-03-20 09:03:00,54.0,-99.9,30.06,SE,135,8.0,11.0,-999,-99.99,,,-99.99,,2013-03-20 16:03:00,
2013-03-20 09:13:00,54.0,-99.9,30.06,SE,134,9.0,12.0,-999,-99.99,,,-99.99,,2013-03-20 16:13:00,
2013-03-20 09:23:00,54.0,-99.9,30.06,SE,131,9.0,12.0,-999,-99.99,,,-99.99,,2013-03-20 16:23:00,
2013-03-20 09:33:00,54.0,-99.9,30.06,SE,131,10.0,13.0,-999,-99.99,,,-99.99,,2013-03-20 16:33:00,
2013-03-20 09:43:00,54.0,-99.9,30.06,SE,129,9.0,13.0,-999,-99.99,,,-99.99,,2013-03-20 16:43:00,
2013-03-20 09:53:00,55.0,-99.9,30.06,SE,134,12.0,17.0,-999,-99.99,,,-99.99,,2013-03-20 16:53:00,
2013-03-20 10:03:00,55.0,-99.9,30.06,SE,135,10.0,15.0,-999,-99.99,,,-99.99,,2013-03-20 17:03:00,
2013-03-20 10:12:00,55.0,-99.9,30.07,SE,132,12.0,15.0,-999,-99.99,,,-99.99,,2013-03-20 17:12:00,
2013-03-20 10:22:00,55.0,-99.9,30.06,SE,128,13.0,15.0,-999,-99.99,,,-99.99,,2013-03-20 17:22:00,
2013-03-20 10:33:00,55.0,-99.9,30.06,SE,128,13.0,15.0,-999,-99.99,,,-99.99,,2013-03-20 17:33:00,
2013-03-20 10:42:00,55.0,-99.9,30.06,SE,130,12.0,16.0,-999,-99.99,,,-99.99,,2013-03-20 17:42:00,
2013-03-20 10:53:00,55.0,-99.9,30.06,SE,128,12.0,16.0,-999,-99.99,,,-99.99,,2013-03-20 17:53:00,
2013-03-20 11:02:00,55.0,-99.9,30.06,SE,128,12.0,16.0,-999,-99.99,,,-99.99,,2013-03-20 18:02:00,
2013-03-20 11:12:00,56.0,-99.9,30.06,ESE,123,13.0,16.0,-999,-99.99,,,-99.99,,2013-03-20 18:12:00,
2013-03-20 11:22:00,57.0,-99.9,30.06,SE,129,12.0,15.0,-999,-99.99,,,-99.99,,2013-03-20 18:22:00,
2013-03-20 11:34:00,56.0,-99.9,30.06,SE,125,14.0,17.0,-999,-99.99,,,-99.99,,2013-03-20 18:34:00,
2013-03-20 11:43:00,56.0,-99.9,30.07,SE,125,12.0,15.0,-999,-99.99,,,-99.99,,2013-03-20 18:43:00,
2013-03-20 11:53:00,55.0,-99.9,30.07,ESE,115,10.0,13.0,-999,-99.99,,,-99.99,,2013-03-20 18:53:00,
2013-03-20 12:02:00,56.0,-99.9,30.07,ESE,105,9.0,11.0,-999,-99.99,,,-99.99,,2013-03-20 19:02:00,
2013-03-20 12:12:00,56.0,-99.9,30.08,ESE,104,8.0,9.0,-999,-99.99,,,-99.99,,2013-03-20 19:12:00,
2013-03-20 12:23:00,56.0,-99.9,30.08,East,101,7.0,8.0,-999,-99.99,,,-99.99,,2013-03-20 19:23:00,
2013-03-20 12:33:00,53.0,-99.9,30.09,NW,313,9.0,10.0,-999,-99.99,,,-99.99,,2013-03-20 19:33:00,
2013-03-20 12:42:00,53.0,-99.9,30.09,NNW,328,8.0,10.0,-999,-99.99,,,-99.99,,2013-03-20 19:42:00,
2013-03-20 12:53:00,53.0,-99.9,30.09,NW,325,5.0,6.0,-999,-99.99,,,-99.99,,2013-03-20 19:53:00,
2013-03-20 13:02:00,53.0,-99.9,30.09,NW,325,5.0,6.0,-999,-99.99,,,-99.99,,2013-03-20 20:02:00,
2013-03-20 13:13:00,54.0,-99.9,30.09,NNW,340,4.0,5.0,-999,-99.99,,,-99.99,,2013-03-20 20:13:00,
2013-03-20 13:23:00,55.0,-99.9,30.09,North,3,2.0,5.0,-999,-99.99,,,-99.99,,2013-03-20 20:23:00,
2013-03-20 13:32:00,55.0,-99.9,30.09,ESE,118,6.0,10.0,-999,-99.99,,,-99.99,,2013-03-20 20:32:00,
2013-03-20 13:43:00,55.0,-99.9,30.09,ESE,118,5.0,9.0,-999,-99.99,,,-99.99,,2013-03-20 20:43:00,
2013-03-20 13:53:00,56.0,-99.9,30.09,SE,126,7.0,10.0,-999,-99.99,,,-99.99,,2013-03-20 20:53:00,
2013-03-20 14:02:00,56.0,-99.9,30.09,SE,126,7.0,10.0,-999,-99.99,,,-99.99,,2013-03-20 21:02:00,
2013-03-20 14:12:00,56.0,-99.9,30.08,SSE,159,3.0,9.0,-999,-99.99,,,-99.99,,2013-03-20 21:12:00,
2013-03-20 14:23:00,56.0,-99.9,30.08,SSE,153,3.0,11.0,-999,-99.99,,,-99.99,,2013-03-20 21:23:00,
2013-03-20 14:33:00,56.0,-99.9,30.07,SSE,156,3.0,6.0,-999,-99.99,,,-99.99,,2013-03-20 21:33:00,
2013-03-20 14:42:00,56.0,-99.9,30.08,West,269,2.0,6.0,-999,-99.99,,,-99.99,,2013-03-20 21:42:00,
2013-03-20 14:53:00,56.0,-99.9,30.08,North,352,3.0,6.0,-999,-99.99,,,-99.99,,2013-03-20 21:53:00,
2013-03-20 15:03:00,56.0,-99.9,30.08,South,171,2.0,7.0,-999,-99.99,,,-99.99,,2013-03-20 22:03:00,
2013-03-20 15:13:00,56.0,-99.9,30.08,West,270,4.0,9.0,-999,-99.99,,,-99.99,,2013-03-20 22:13:00,
2013-03-20 15:23:00,56.0,-99.9,30.08,SW,231,6.0,9.0,-999,-99.99,,,-99.99,,2013-03-20 22:23:00,
2013-03-20 15:33:00,56.0,-99.9,30.08,WSW,245,2.0,9.0,-999,-99.99,,,-99.99,,2013-03-20 22:33:00,
2013-03-20 15:43:00,56.0,-99.9,30.08,WSW,258,5.0,12.0,-999,-99.99,,,-99.99,,2013-03-20 22:43:00,
2013-03-20 15:53:00,56.0,-99.9,30.08,WSW,241,6.0,11.0,-999,-99.99,,,-99.99,,2013-03-20 22:53:00,
2013-03-20 16:03:00,56.0,-99.9,30.08,WSW,241,7.0,13.0,-999,-99.99,,,-99.99,,2013-03-20 23:03:00,
2013-03-20 16:12:00,56.0,-99.9,30.08,WSW,244,8.0,14.0,-999,-99.99,,,-99.99,,2013-03-20 23:12:00,
2013-03-20 16:23:00,56.0,-99.9,30.07,WSW,249,9.0,11.0,-999,-99.99,,,-99.99,,2013-03-20 23:23:00,
2013-03-20 16:33:00,56.0,-99.9,30.08,SW,235,9.0,14.0,-999,-99.99,,,-99.99,,2013-03-20 23:33:00,
2013-03-20 16:43:00,56.0,-99.9,30.08,SW,235,9.0,14.0,-999,-99.99,,,-99.99,,2013-03-20 23:43:00,
2013-03-20 16:53:00,56.0,-99.9,30.08,SW,236,8.0,13.0,-999,-99.99,,,-99.99,,2013-03-20 23:53:00,
2013-03-20 17:03:00,55.0,-99.9,30.07,WSW,241,10.0,14.0,-999,-99.99,,,-99.99,,2013-03-21 00:03:00,
2013-03-20 17:13:00,56.0,-99.9,30.07,SW,222,6.0,12.0,-999,-99.99,,,-99.99,,2013-03-21 00:13:00,
2013-03-20 17:23:00,56.0,-99.9,30.07,WSW,249,7.0,13.0,-999,-99.99,,,-99.99,,2013-03-21 00:23:00,
2013-03-20 17:33:00,56.0,-99.9,30.07,SW,233,6.0,10.0,-999,-99.99,,,-99.99,,2013-03-21 00:33:00,
2013-03-20 17:42:00,56.0,-99.9,30.07,WSW,241,7.0,11.0,-999,-99.99,,,-99.99,,2013-03-21 00:42:00,
2013-03-20 17:53:00,56.0,-99.9,30.07,WSW,244,6.0,12.0,-999,-99.99,,,-99.99,,2013-03-21 00:53:00,
2013-03-20 18:02:00,55.0,-99.9,30.07,SW,235,6.0,10.0,-999,-99.99,,,-99.99,,2013-03-21 01:02:00,
2013-03-20 18:12:00,55.0,-99.9,30.07,WSW,249,5.0,9.0,-999,-99.99,,,-99.99,,2013-03-21 01:12:00,
2013-03-20 18:22:00,55.0,-99.9,30.07,WSW,243,6.0,15.0,-999,-99.99,,,-99.99,,2013-03-21 01:22:00,
2013-03-20 18:33:00,54.0,-99.9,30.08,WSW,248,9.0,14.0,-999,-99.99,,,-99.99,,2013-03-21 01:33:00,
2013-03-20 18:42:00,54.0,-99.9,30.08,WSW,250,10.0,13.0,-999,-99.99,,,-99.99,,2013-03-21 01:42:00,
2013-03-20 18:53:00,54.0,-99.9,30.08,WSW,248,8.0,13.0,-999,-99.99,,,-99.99,,2013-03-21 01:53:00,
2013-03-20 19:03:00,54.0,-99.9,30.08,WSW,244,6.0,10.0,-999,-99.99,,,-99.99,,2013-03-21 02:03:00,
2013-03-20 19:13:00,54.0,-99.9,30.09,WSW,252,6.0,11.0,-999,-99.99,,,-99.99,,2013-03-21 02:13:00,
2013-03-20 19:23:00,53.0,-99.9,30.09,WSW,250,10.0,13.0,-999,-99.99,,,-99.99,,2013-03-21 02:23:00,
2013-03-20 19:33:00,53.0,-99.9,30.09,WSW,243,8.0,11.0,-999,-99.99,,,-99.99,,2013-03-21 02:33:00,
2013-03-20 19:42:00,53.0,-99.9,30.09,WSW,243,8.0,11.0,-999,-99.99,,,-99.99,,2013-03-21 02:42:00,
2013-03-20 19:52:00,53.0,-99.9,30.09,WSW,243,8.0,11.0,-999,-99.99,,,-99.99,,2013-03-21 02:52:00,
2013-03-20 20:02:00,53.0,-99.9,30.09,WSW,243,10.0,14.0,-999,-99.99,,,-99.99,,2013-03-21 03:02:00,
2013-03-20 20:12:00,53.0,-99.9,30.09,SW,233,7.0,13.0,-999,-99.99,,,-99.99,,2013-03-21 03:12:00,
2013-03-20 20:22:00,53.0,-99.9,30.09,SW,229,6.0,11.0,-999,-99.99,,,-99.99,,2013-03-21 03:22:00,
2013-03-20 20:33:00,53.0,-99.9,30.09,WSW,248,6.0,9.0,-999,-99.99,,,-99.99,,2013-03-21 03:33:00,
2013-03-20 20:43:00,53.0,-99.9,30.09,WSW,245,5.0,12.0,-999,-99.99,,,-99.99,,2013-03-21 03:43:00,
2013-03-20 20:53:00,53.0,-99.9,30.10,WSW,250,8.0,11.0,-999,-99.99,,,-99.99,,2013-03-21 03:53:00,
2013-03-20 21:03:00,53.0,-99.9,30.10,WSW,250,8.0,11.0,-999,-99.99,,,-99.99,,2013-03-21 04:03:00,
2013-03-20 21:13:00,53.0,-99.9,30.10,WSW,249,10.0,13.0,-999,-99.99,,,-99.99,,2013-03-21 04:13:00,
2013-03-20 21:23:00,53.0,-99.9,30.11,WSW,241,6.0,10.0,-999,-99.99,,,-99.99,,2013-03-21 04:23:00,
2013-03-20 21:33:00,53.0,-99.9,30.11,WSW,248,7.0,11.0,-999,-99.99,,,-99.99,,2013-03-21 04:33:00,
2013-03-20 21:43:00,53.0,-99.9,30.11,WSW,250,6.0,10.0,-999,-99.99,,,-99.99,,2013-03-21 04:43:00,
2013-03-20 21:53:00,53.0,-99.9,30.11,WSW,248,7.0,10.0,-999,-99.99,,,-99.99,,2013-03-21 04:53:00,
2013-03-20 22:03:00,53.0,-99.9,30.11,WSW,250,6.0,12.0,-999,-99.99,,,-99.99,,2013-03-21 05:03:00,
2013-03-20 22:13:00,53.0,-99.9,30.11,SW,229,4.0,12.0,-999,-99.99,,,-99.99,,2013-03-21 05:13:00,
2013-03-20 22:22:00,53.0,-99.9,30.11,WSW,255,7.0,10.0,-999,-99.99,,,-99.99,,2013-03-21 05:22:00,
2013-03-20 22:33:00,53.0,-99.9,30.11,SW,236,7.0,11.0,-999,-99.99,,,-99.99,,2013-03-21 05:33:00,
2013-03-20 22:44:00,53.0,-99.9,30.12,WSW,249,10.0,14.0,-999,-99.99,,,-99.99,,2013-03-21 05:44:00,
2013-03-20 22:52:00,53.0,-99.9,30.12,WSW,247,7.0,12.0,-999,-99.99,,,-99.99,,2013-03-21 05:52:00,
2013-03-20 23:03:00,52.0,-99.9,30.12,WSW,245,9.0,13.0,-999,-99.99,,,-99.99,,2013-03-21 06:03:00,
2013-03-20 23:12:00,53.0,-99.9,30.11,WSW,252,7.0,13.0,-999,-99.99,,,-99.99,,2013-03-21 06:12:00,
2013-03-20 23:23:00,52.0,-99.9,30.11,WSW,251,11.0,16.0,-999,-99.99,,,-99.99,,2013-03-21 06:23:00,
2013-03-20 23:32:00,52.0,-99.9,30.11,WSW,253,8.0,11.0,-999,-99.99,,,-99.99,,2013-03-21 06:32:00,
2013-03-20 23:42:00,51.0,-99.9,30.11,WSW,246,11.0,15.0,-999,-99.99,,,-99.99,,2013-03-21 06:42:00,
2013-03-20 23:52:00,51.0,-99.9,30.11,SW,236,8.0,17.0,-999,-99.99,,,-99.99,,2013-03-21 06:52:00,